METAR Data
IDs: Format: Raw Decoded Include TAF

Data at: 1359 UTC 25 Nov 2020

VTUK 251300Z 09004KT 050V130 9999 FEW030 27/20 Q1014 NOSIG
VTUK 251200Z 06005KT 9999 SCT030 28/20 Q1013 NOSIG
VTUK 251100Z 05005KT 9999 SCT030 29/20 Q1012 NOSIG
VTUK 251000Z 06005KT 030V100 9999 SCT030 30/19 Q1011 NOSIG
VTUK 250900Z 08006KT 040V160 9999 SCT030 31/19 Q1011 NOSIG
VTUK 250800Z 07007KT 030V150 9999 SCT030 32/19 Q1011 NOSIG
VTUK 250700Z 05007KT 020V090 9999 SCT030 31/20 Q1012 NOSIG
VTUK 250600Z 07005KT 020V140 9999 SCT030 31/20 Q1013 NOSIG
VTUK 250500Z 05009KT 030V110 9999 SCT030 30/20 Q1014 NOSIG
VTUK 250400Z 05009KT 9999 SCT025 29/19 Q1016 NOSIG
VTUK 250200Z 05008KT 9000 NSC 26/20 Q1017 NOSIG
VTUK 250100Z 03008KT 9000 NSC 25/20 Q1016 NOSIG
VTUK 250000Z 02005KT 9000 NSC 22/20 Q1015 NOSIG
VTUK 242300Z 02005KT 9000 NSC 22/19 Q1014 NOSIG
VTUK 242200Z 03006KT 9000 NSC 22/20 Q1014 NOSIG
VTUK 242000Z 03004KT 9000 NSC 22/20 Q1014 NOSIG
VTUK 241900Z 06003KT 9000 NSC 23/20 Q1014 NOSIG
VTUK 241800Z 06004KT 9000 NSC 24/20 Q1015 NOSIG
VTUK 241700Z 10004KT 060V130 9000 NSC 24/20 Q1015 NOSIG
VTUK 241600Z 08004KT 050V110 9000 NSC 25/20 Q1015 NOSIG
VTUK 241500Z 04005KT 9000 NSC 25/21 Q1015 NOSIG
VTUK 241400Z 05004KT 9000 NSC 26/20 Q1015 NOSIG
VTUK 241300Z 06005KT 9000 NSC 26/20 Q1014 NOSIG
VTUK 241200Z 06004KT 9999 FEW030 27/21 Q1013 NOSIG
VTUK 241100Z 07004KT 9999 FEW030 28/21 Q1013 NOSIG
VTUK 241000Z 08006KT 040V120 9999 FEW030 30/20 Q1012 NOSIG
VTUK 240900Z 06009KT 030V090 9999 BKN045 31/20 Q1012 NOSIG
VTUK 240800Z 07005KT 030V120 9999 BKN045 31/20 Q1012 NOSIG
VTUK 240700Z 06006KT 030V120 9999 BKN040 30/20 Q1012 NOSIG
VTUK 240600Z 06007KT 030V100 9999 BKN040 31/20 Q1013 NOSIG
VTUK 240500Z 07007KT 030V150 9999 BKN030 30/20 Q1015 NOSIG
VTUK 240400Z 08008KT 040V140 9999 FEW030 29/20 Q1016 NOSIG
VTUK 240300Z 07006KT 030V190 9999 FEW030 28/21 Q1017 NOSIG

VTUD 251300Z 09003KT CAVOK 25/21 Q1013 NOSIG
VTUD 251200Z 00000KT CAVOK 25/20 Q1013 NOSIG
VTUD 251100Z VRB02KT CAVOK 29/20 Q1012 NOSIG
VTUD 251000Z 04004KT 350V070 9999 FEW045 31/19 Q1011 NOSIG
VTUD 250900Z 05003KT 360V090 9999 FEW045 32/19 Q1011 NOSIG
VTUD 250800Z VRB05KT 9999 SCT045 32/20 Q1011 NOSIG
VTUD 250700Z VRB05KT 9999 FEW045 33/19 Q1012 NOSIG
VTUD 250600Z 08005KT 020V120 9999 FEW045 32/19 Q1013 NOSIG
VTUD 250500Z 09006KT 040V150 9999 FEW045 32/20 Q1015 NOSIG
VTUD 250400Z 06006KT 020V120 CAVOK 30/20 Q1016 NOSIG
VTUD 250200Z 06005KT 030V110 CAVOK 27/20 Q1017 NOSIG
VTUD 250100Z VRB02KT CAVOK 24/20 Q1016 NOSIG
VTUD 250000Z 36003KT 320V040 CAVOK 22/20 Q1015 NOSIG
VTUD 242300Z VRB01KT CAVOK 20/19 Q1015 NOSIG
VTUD 241300Z 00000KT CAVOK 25/20 Q1014 NOSIG
VTUD 241200Z 08003KT 070V140 9999 FEW045 26/20 Q1013 NOSIG
VTUD 241100Z 07003KT 9999 FEW045 29/19 Q1013 NOSIG
VTUD 241000Z 07004KT 9999 FEW045 31/19 Q1012 NOSIG
VTUD 240900Z 09006KT 060V120 9999 FEW045 32/19 Q1012 NOSIG
VTUD 240800Z VRB05KT 9999 FEW045 32/19 Q1012 NOSIG
VTUD 240700Z 12006KT 090V180 9999 FEW045 32/19 Q1013 NOSIG
VTUD 240600Z 11006KT 040V160 9999 FEW045 32/20 Q1014 NOSIG
VTUD 240500Z 09008KT 030V130 9999 FEW045 31/20 Q1015 NOSIG
VTUD 240400Z 06007KT 010V140 9999 FEW045 30/19 Q1016 NOSIG
VTUD 240300Z 07006KT 340V110 CAVOK 29/20 Q1017 NOSIG

VTUL 251200Z 00000KT 9999 FEW030 24/22 Q1013 NOSIG
VTUL 251100Z VRB01KT 9999 FEW030 26/22 Q1013 NOSIG
VTUL 251000Z 33003KT 300V360 9999 FEW030 30/21 Q1012 NOSIG
VTUL 250900Z 36006KT 300V080 9999 SCT030 31/20 Q1012 NOSIG
VTUL 250800Z 13003KT 050V190 9999 SCT030 31/20 Q1012 NOSIG
VTUL 250700Z VRB03KT 9999 SCT030 32/20 Q1012 NOSIG
VTUL 250600Z 17003KT 110V220 9999 SCT030 30/21 Q1014 NOSIG
VTUL 250500Z VRB02KT 9999 SCT030 29/21 Q1015 NOSIG
VTUL 250400Z VRB03KT 9999 FEW030 28/21 Q1016 NOSIG
VTUL 250200Z VRB03KT 9999 FEW030 24/21 Q1018 NOSIG
VTUL 250100Z 33003KT 280V010 9999 BKN030 22/21 Q1017 NOSIG
VTUL 250000Z 34003KT 310V020 9999 BKN030 20/20 Q1016 NOSIG
VTUL 242300Z 00000KT 9999 FEW030 19/19 Q1015 NOSIG
VTUL 241200Z VRB02KT 9999 FEW035 24/22 Q1014 NOSIG
VTUL 241100Z 27002KT 9999 FEW035 25/22 Q1013 NOSIG
VTUL 241000Z VRB02KT 9999 FEW035 29/21 Q1013 NOSIG
VTUL 240900Z 10004KT 050V180 9999 FEW035 30/21 Q1012 NOSIG
VTUL 240800Z 04004KT 340V080 9999 SCT035 30/21 Q1013 NOSIG
VTUL 240700Z 12004KT 090V150 9999 SCT035 29/20 Q1013 NOSIG
VTUL 240600Z VRB05KT 9999 SCT035 29/20 Q1014 NOSIG
VTUL 240500Z 07006KT 040V110 9999 SCT035 28/20 Q1016 NOSIG
VTUL 240400Z VRB04KT 9999 SCT035 29/21 Q1017 NOSIG
VTUL 240300Z 11003KT 030V170 9999 FEW030 28/21 Q1018 NOSIG

VTUI 251200Z 12007KT 090V160 9000 FEW030 28/21 Q1013 NOSIG
VTUI 251100Z 12007KT 9999 SCT035 29/21 Q1012 NOSIG
VTUI 251000Z 12007KT 9999 SCT040 30/21 Q1011 NOSIG
VTUI 250900Z 12008KT 9999 SCT045 31/20 Q1011 NOSIG
VTUI 250800Z 11007KT 080V160 9999 BKN045 32/20 Q1011 NOSIG
VTUI 250700Z 11008KT 070V140 9999 SCT045 32/20 Q1011 NOSIG
VTUI 250600Z 09008KT 040V130 9999 SCT045 31/20 Q1012 NOSIG
VTUI 250500Z 10010KT 9999 FEW040 31/19 Q1014 NOSIG
VTUI 250400Z 06008KT 020V120 9999 FEW035 29/20 Q1015 NOSIG
VTUI 250200Z 08004KT 030V120 9999 FEW030 26/20 Q1016 NOSIG
VTUI 250100Z 00000KT CAVOK 25/21 Q1016 NOSIG
VTUI 250000Z 24002KT 9000 NSC 21/21 Q1015 NOSIG
VTUI 242300Z 33002KT 8000 FEW020 SCT080 21/21 Q1014 NOSIG
VTUI 241200Z 11008KT 070V140 9999 FEW030 28/21 Q1013 NOSIG
VTUI 241100Z 11006KT 9999 FEW035 29/21 Q1012 NOSIG
VTUI 241000Z 10006KT 070V130 9999 FEW040 30/21 Q1012 NOSIG
VTUI 240900Z 12006KT 090V150 9999 SCT040 31/20 Q1012 NOSIG
VTUI 240800Z 12008KT 060V150 9999 SCT045 31/20 Q1012 NOSIG
VTUI 240700Z 11008KT 060V140 9999 BKN045 32/19 Q1012 NOSIG
VTUI 240600Z 09009KT 030V130 9999 BKN045 31/20 Q1013 NOSIG
VTUI 240500Z 07008KT 030V110 9999 SCT045 30/19 Q1014 NOSIG
VTUI 240400Z 07007KT 030V100 9999 SCT040 29/19 Q1016 NOSIG
VTUI 240300Z 08005KT 010V110 9999 FEW035 28/20 Q1016 NOSIG

VTUW 251300Z 12007KT 9000 NSC 25/20 Q1014 NOSIG
VTUW 251200Z 12008KT 9000 NSC 26/20 Q1013 NOSIG
VTUW 251100Z 12007KT 9000 NSC 27/20 Q1013 NOSIG
VTUW 251000Z 13010KT 9000 FEW035 29/20 Q1012 NOSIG
VTUW 250900Z 13009KT 9999 SCT035 31/20 Q1011 NOSIG
VTUW 250800Z 09005KT 030V120 9999 SCT035 31/20 Q1011 NOSIG
VTUW 250700Z 05007KT 020V130 9999 SCT030 31/20 Q1012 NOSIG
VTUW 250600Z 10006KT 350V150 9999 FEW030 32/20 Q1012 NOSIG
VTUW 250500Z 06005KT 020V140 9999 FEW030 31/20 Q1014 NOSIG
VTUW 250400Z 05007KT 010V080 9999 FEW030 30/20 Q1015 NOSIG
VTUW 250200Z 08006KT 050V120 9000 NSC 28/21 Q1016 NOSIG
VTUW 250100Z VRB02KT 7000 NSC 26/21 Q1016 NOSIG
VTUW 250000Z VRB02KT 6000 FEW045 22/21 Q1015 NOSIG
VTUW 241300Z 12008KT 9000 FEW035 26/20 Q1015 NOSIG
VTUW 241200Z 13006KT 9000 FEW035 26/21 Q1014 NOSIG
VTUW 241100Z 13005KT 9000 FEW035 27/21 Q1013 NOSIG
VTUW 241000Z 12007KT 9999 FEW030 30/21 Q1012 NOSIG
VTUW 240900Z 13008KT 100V160 9999 FEW030 31/20 Q1012 NOSIG
VTUW 240800Z 11004KT 020V190 9999 FEW030 32/20 Q1012 NOSIG
VTUW 240700Z 07005KT 030V120 9999 SCT030 31/20 Q1012 NOSIG
VTUW 240600Z 11007KT 070V170 9999 SCT030 32/19 Q1013 NOSIG
VTUW 240500Z 06005KT 010V110 9999 SCT030 31/20 Q1015 NOSIG
VTUW 240400Z 09007KT 040V130 9999 FEW025 30/20 Q1016 NOSIG
VTUW 240300Z 04007KT 360V080 9999 FEW025 29/20 Q1016 NOSIG